createdAt,value
2023-05-01T00:01:09.901Z,648
2023-05-01T00:02:53.322Z,653.6
2023-05-01T00:04:36.698Z,653.4
2023-05-01T00:06:20.502Z,654.8
2023-05-01T00:08:03.751Z,656.2
2023-05-01T00:09:47.156Z,652.8
2023-05-01T00:11:30.556Z,647.5
2023-05-01T00:13:13.949Z,642
2023-05-01T00:14:57.345Z,640.5
2023-05-01T00:16:40.730Z,639.5
2023-05-01T00:18:24.166Z,635.1
2023-05-01T00:20:07.524Z,631
2023-05-01T00:23:34.000Z,624.3
2023-05-01T00:25:17.407Z,621.7
2023-05-01T00:27:00.800Z,621.1
2023-05-01T00:28:44.200Z,621
2023-05-01T00:30:27.671Z,618.7
2023-05-01T00:32:11.015Z,616.4
2023-05-01T00:33:54.417Z,615.1
2023-05-01T00:35:37.770Z,610.6
2023-05-01T00:37:21.214Z,608.4
2023-05-01T00:39:04.886Z,604
2023-05-01T00:40:48.330Z,600.5
2023-05-01T00:42:31.675Z,599.2
2023-05-01T00:44:15.132Z,599.4
2023-05-01T00:45:58.484Z,596.5
2023-05-01T00:47:41.949Z,594.3
2023-05-01T00:49:25.331Z,593
2023-05-01T00:51:08.741Z,591.5
2023-05-01T00:52:52.086Z,590.2
2023-05-01T00:56:18.529Z,587.6
2023-05-01T00:58:01.925Z,586
2023-05-01T00:59:45.450Z,584.7
2023-05-01T01:01:28.714Z,583.4
2023-05-01T01:03:12.107Z,581.3
2023-05-01T01:04:55.520Z,580.8
2023-05-01T01:06:38.994Z,581.3
2023-05-01T01:08:22.296Z,583.6
2023-05-01T01:10:05.695Z,582.2
2023-05-01T01:13:32.211Z,581.8
2023-05-01T01:15:15.561Z,578.1
2023-05-01T01:16:58.970Z,578.6
2023-05-01T01:18:42.354Z,577.4
2023-05-01T01:20:25.805Z,579.1
2023-05-01T01:22:09.151Z,577.2
2023-05-01T01:23:52.563Z,573.5
2023-05-01T01:25:35.925Z,571.8
2023-05-01T01:30:45.276Z,567.6
2023-05-01T01:32:28.590Z,570.5
2023-05-01T01:34:11.976Z,570.6
2023-05-01T01:37:38.793Z,573.6
2023-05-01T01:39:22.167Z,575
2023-05-01T01:41:05.641Z,574.6
2023-05-01T01:51:25.623Z,574.1
2023-05-01T01:53:09.037Z,570.4
2023-05-01T01:54:52.428Z,570.1
2023-05-01T01:56:35.815Z,570.7
2023-05-01T01:58:19.244Z,571.5
2023-05-01T02:00:02.602Z,569.6
2023-05-01T02:01:46.028Z,567.4
2023-05-01T02:03:29.702Z,567.4
2023-05-01T02:05:13.114Z,566.2
2023-05-01T02:06:56.516Z,564.1
2023-05-01T02:08:39.936Z,562.1
2023-05-01T02:10:23.377Z,562.3
2023-05-01T02:12:06.787Z,561.1
2023-05-01T02:13:50.080Z,560.8
2023-05-01T02:15:33.530Z,561.4
2023-05-01T02:17:16.901Z,558
2023-05-01T02:19:00.593Z,556.5
2023-05-01T02:20:43.977Z,556.3
2023-05-01T02:22:27.398Z,553.6
2023-05-01T02:24:10.812Z,550.5
2023-05-01T02:25:54.166Z,549.4
2023-05-01T02:27:37.561Z,549.8
2023-05-01T02:29:21.000Z,548.5
2023-05-01T02:31:04.441Z,547.3
2023-05-01T02:32:47.754Z,548.4
2023-05-01T02:34:31.454Z,549.9
2023-05-01T02:36:14.923Z,551.2
2023-05-01T02:37:58.260Z,550.6
2023-05-01T02:39:41.708Z,549.7
2023-05-01T02:41:25.102Z,551.1
2023-05-01T02:43:08.443Z,550.8
2023-05-01T02:44:51.825Z,548.8
2023-05-01T02:46:35.281Z,549.8
2023-05-01T02:48:18.626Z,548.3
2023-05-01T02:51:45.101Z,550.2
2023-05-01T02:53:28.585Z,551.1
2023-05-01T02:55:11.906Z,549.4
2023-05-01T02:56:55.275Z,547.7
2023-05-01T02:58:38.717Z,550.3
2023-05-01T03:00:22.081Z,550.2
2023-05-01T03:02:05.529Z,549
2023-05-01T03:03:48.866Z,549.7
2023-05-01T03:08:58.119Z,544.5
2023-05-01T03:10:41.578Z,543.2
2023-05-01T03:12:24.910Z,542.7
2023-05-01T03:14:08.308Z,541.5
2023-05-01T03:15:51.758Z,542.3
2023-05-01T03:17:35.101Z,540.6
2023-05-01T03:19:18.499Z,539.7
2023-05-01T03:21:02.023Z,536.8
2023-05-01T03:24:28.611Z,534.5
2023-05-01T03:26:11.780Z,535
2023-05-01T03:27:55.152Z,537.7
2023-05-01T03:29:38.558Z,538.7
2023-05-01T03:31:21.940Z,538.5
2023-05-01T03:33:05.359Z,538.4
2023-05-01T03:34:48.738Z,536
2023-05-01T03:36:32.130Z,534.4
2023-05-01T03:38:15.541Z,533.4
2023-05-01T03:39:59.249Z,533.3
2023-05-01T03:41:42.622Z,531.6
2023-05-01T03:43:26.139Z,529
2023-05-01T03:45:09.448Z,528.6
2023-05-01T03:46:52.854Z,528.7
2023-05-01T03:48:36.253Z,528.4
2023-05-01T03:50:19.624Z,526.7
2023-05-01T03:52:03.014Z,523.1
2023-05-01T03:57:12.245Z,522.2
2023-05-01T03:58:55.663Z,521.8
2023-05-01T04:00:39.064Z,524.4
2023-05-01T04:02:22.441Z,527.1
2023-05-01T04:04:05.828Z,528.5
2023-05-01T04:05:49.304Z,530
2023-05-01T04:07:32.635Z,529.3
2023-05-01T04:09:16.029Z,526.8
2023-05-01T04:10:59.743Z,524.6
2023-05-01T04:12:43.235Z,519.2
2023-05-01T04:14:26.543Z,518.1
2023-05-01T04:16:09.918Z,516.8
2023-05-01T04:17:53.384Z,518.4
2023-05-01T04:19:36.746Z,519.3
2023-05-01T04:21:20.212Z,518.5
2023-05-01T04:23:03.573Z,518.7
2023-05-01T04:26:29.970Z,519.1
2023-05-01T04:28:13.364Z,516.4
2023-05-01T04:29:56.822Z,514.1
2023-05-01T04:31:40.231Z,512.6
2023-05-01T04:33:23.569Z,513.8
2023-05-01T04:35:07.008Z,511.5
2023-05-01T04:36:50.396Z,510.1
2023-05-01T04:38:33.865Z,509.2
2023-05-01T04:42:00.289Z,509.5
2023-05-01T04:43:43.664Z,511.7
2023-05-01T04:45:27.023Z,513.4
2023-05-01T04:47:10.441Z,513.1
2023-05-01T04:48:53.816Z,514.8
2023-05-01T04:50:37.223Z,514
2023-05-01T04:52:20.663Z,513.7
2023-05-01T04:54:04.025Z,511.5
2023-05-01T04:55:47.734Z,508.1
2023-05-01T04:57:31.113Z,507.1
2023-05-01T04:59:14.579Z,505
2023-05-01T05:00:57.899Z,504.8
2023-05-01T05:02:41.301Z,505.8
2023-05-01T05:04:24.735Z,507.1
2023-05-01T05:06:08.104Z,507.3
2023-05-01T05:07:51.489Z,506.1
2023-05-01T05:11:18.000Z,504.1
2023-05-01T05:13:01.355Z,502.7
2023-05-01T05:14:44.758Z,502.4
2023-05-01T05:16:28.136Z,502.5
2023-05-01T05:18:11.583Z,499.5
2023-05-01T05:19:54.950Z,499.6
2023-05-01T05:21:38.359Z,502.3
2023-05-01T05:23:21.980Z,503.5
2023-05-01T05:26:48.271Z,503
2023-05-01T05:28:31.599Z,501.8
2023-05-01T05:30:15.131Z,502.1
2023-05-01T05:31:58.414Z,501.6
2023-05-01T05:33:41.789Z,499.8
2023-05-01T05:35:25.178Z,498
2023-05-01T05:37:08.583Z,497.8
2023-05-01T05:38:51.990Z,498
2023-05-01T05:42:18.480Z,500.5
2023-05-01T05:44:01.840Z,500.6
2023-05-01T05:45:45.253Z,500.4
2023-05-01T05:47:28.706Z,500.3
2023-05-01T05:49:12.107Z,499.4
2023-05-01T05:50:55.533Z,502.2
2023-05-01T05:52:38.843Z,503.7
2023-05-01T05:54:22.271Z,502.1
2023-05-01T05:59:31.463Z,498.4
2023-05-01T06:01:14.874Z,499.6
2023-05-01T06:02:58.289Z,498.6
2023-05-01T06:04:41.712Z,497.4
2023-05-01T06:06:25.055Z,497.7
2023-05-01T06:08:08.451Z,494.4
2023-05-01T06:09:51.983Z,497.4
2023-05-01T06:11:35.241Z,498.1
2023-05-01T06:15:01.791Z,500.1
2023-05-01T06:16:45.120Z,498.2
2023-05-01T06:18:28.577Z,500
2023-05-01T06:20:11.971Z,501.8
2023-05-01T06:21:55.317Z,506.1
2023-05-01T06:23:38.698Z,511.6
2023-05-01T06:25:22.112Z,516.4
2023-05-01T06:27:05.484Z,521
2023-05-01T06:30:31.957Z,529.7
2023-05-01T06:32:15.443Z,535.5
2023-05-01T06:33:58.787Z,533.3
2023-05-01T06:35:42.152Z,533.4
2023-05-01T06:37:25.547Z,533
2023-05-01T06:39:08.931Z,531.1
2023-05-01T06:40:52.379Z,530.6
2023-05-01T06:42:35.731Z,535.7
2023-05-01T06:47:44.979Z,561.3
2023-05-01T06:49:28.369Z,567.2
2023-05-01T06:51:11.810Z,570.5
2023-05-01T06:52:55.223Z,573.6
2023-05-01T06:54:38.564Z,572.8
2023-05-01T06:56:22.047Z,572.4
2023-05-01T06:58:05.358Z,571.8
2023-05-01T06:59:48.735Z,570.4
2023-05-01T07:04:57.982Z,563.5
2023-05-01T07:06:41.380Z,558.6
2023-05-01T07:08:24.778Z,559.1
2023-05-01T07:10:08.258Z,559.5
2023-05-01T07:11:51.566Z,558.3
2023-05-01T07:13:35.026Z,555.6
2023-05-01T07:15:18.353Z,555.5
2023-05-01T07:17:01.746Z,555.7
2023-05-01T07:20:28.240Z,548.4
2023-05-01T07:22:11.628Z,549.8
2023-05-01T07:23:55.054Z,549.5
2023-05-01T07:25:38.440Z,547.4
2023-05-01T07:27:21.866Z,543.5
2023-05-01T07:29:05.212Z,537.8
2023-05-01T07:30:48.685Z,535.6
2023-05-01T07:32:32.008Z,534
2023-05-01T07:35:58.485Z,533.3
2023-05-01T07:37:41.909Z,531.2
2023-05-01T07:39:25.274Z,529.8
2023-05-01T07:41:08.781Z,528.6
2023-05-01T07:42:52.110Z,529.1
2023-05-01T07:44:35.463Z,530
2023-05-01T07:46:18.929Z,532
2023-05-01T07:48:02.290Z,535.2
2023-05-01T07:51:28.734Z,538.6
2023-05-01T07:53:12.111Z,537.5
2023-05-01T07:54:55.567Z,535.7
2023-05-01T07:56:38.929Z,540
2023-05-01T07:58:22.359Z,542.3
2023-05-01T08:00:05.840Z,538.4
2023-05-01T08:01:49.164Z,532.7
2023-05-01T08:03:32.499Z,534.3
2023-05-01T08:06:59.010Z,536.3
2023-05-01T08:08:42.381Z,538
2023-05-01T08:10:25.761Z,540.3
2023-05-01T08:12:09.159Z,545.8
2023-05-01T08:13:52.642Z,551.1
2023-05-01T08:15:35.978Z,553.7
2023-05-01T08:17:19.410Z,566
2023-05-01T08:19:02.765Z,581.6
2023-05-01T08:22:29.224Z,672.8
2023-05-01T08:24:12.680Z,664.2
2023-05-01T08:25:56.044Z,664
2023-05-01T08:27:39.414Z,667.7
2023-05-01T08:29:22.860Z,667.1
2023-05-01T08:31:06.212Z,664.3
2023-05-01T08:32:49.645Z,663.7
2023-05-01T08:34:33.001Z,666.8
2023-05-01T08:37:59.475Z,669.1
2023-05-01T08:39:42.965Z,675.7
2023-05-01T08:41:26.302Z,673.5
2023-05-01T08:43:09.706Z,670.7
2023-05-01T08:44:53.093Z,665.3
2023-05-01T08:46:36.511Z,666.4
2023-05-01T08:48:19.862Z,666.7
2023-05-01T08:50:03.322Z,662.3
2023-05-01T08:53:29.736Z,652.9
2023-05-01T08:55:13.124Z,651.3
2023-05-01T08:56:56.523Z,649
2023-05-01T08:58:39.970Z,648.3
2023-05-01T09:00:23.313Z,648.3
2023-05-01T09:02:06.744Z,649.4
2023-05-01T09:03:50.097Z,649
2023-05-01T09:05:33.498Z,647.8
2023-05-01T09:08:59.949Z,641.4
2023-05-01T09:10:43.364Z,637.6
2023-05-01T09:12:26.781Z,634.5
2023-05-01T09:14:10.154Z,633.1
2023-05-01T09:15:53.554Z,631.1
2023-05-01T09:17:36.953Z,630.1
2023-05-01T09:19:20.353Z,625.5
2023-05-01T09:21:03.855Z,622.8
2023-05-01T09:26:12.989Z,631.9
2023-05-01T09:27:56.383Z,630.4
2023-05-01T09:29:39.811Z,627.6
2023-05-01T09:31:23.159Z,624
2023-05-01T09:33:06.570Z,621.8
2023-05-01T09:34:50.013Z,620.8
2023-05-01T09:36:33.364Z,621.7
2023-05-01T09:38:16.779Z,620.3
2023-05-01T09:41:43.224Z,626.9
2023-05-01T09:43:26.739Z,636.3
2023-05-01T09:45:10.017Z,646.1
2023-05-01T09:46:53.483Z,649.8
2023-05-01T09:48:59.030Z,650.1
2023-05-01T09:50:20.210Z,653.2
2023-05-01T09:52:03.617Z,654
2023-05-01T09:53:47.025Z,657.6
2023-05-01T09:57:13.465Z,667
2023-05-01T09:58:56.992Z,704.3
2023-05-01T10:00:50.906Z,725.3
2023-05-01T10:02:23.856Z,723.8
2023-05-01T10:04:07.232Z,728.7
2023-05-01T10:05:50.526Z,740
2023-05-01T10:07:33.963Z,744.6
2023-05-01T10:09:17.427Z,752
2023-05-01T10:12:43.894Z,768.8
2023-05-01T10:14:27.308Z,772.3
2023-05-01T10:16:10.725Z,772.7
2023-05-01T10:17:54.097Z,780.3
2023-05-01T10:19:37.396Z,790.1
2023-05-01T10:21:20.724Z,800
2023-05-01T10:23:04.245Z,803
2023-05-01T10:24:47.698Z,801.6
2023-05-01T10:26:31.327Z,805.4
2023-05-01T10:28:14.839Z,814.2
2023-05-01T10:29:58.111Z,826.7
2023-05-01T10:31:41.380Z,833.5
2023-05-01T10:33:24.928Z,843.7
2023-05-01T10:35:08.382Z,847.8
2023-05-01T10:36:51.766Z,850.4
2023-05-01T10:38:35.129Z,859.1
2023-05-01T10:42:01.648Z,906.3
2023-05-01T10:43:45.004Z,915.6
2023-05-01T10:45:28.400Z,921.8
2023-05-01T10:47:11.873Z,922.5
2023-05-01T10:48:55.257Z,926.7
2023-05-01T10:50:38.627Z,931.2
2023-05-01T10:52:21.827Z,933.7
2023-05-01T10:55:48.326Z,953.1
2023-05-01T10:57:31.684Z,960.6
2023-05-01T10:59:15.132Z,970.7
2023-05-01T11:00:58.555Z,981.5
2023-05-01T11:02:42.021Z,992.8
2023-05-01T11:04:25.340Z,1001.5
2023-05-01T11:06:08.760Z,1012.2
2023-05-01T11:07:52.090Z,1019.8
2023-05-01T11:11:18.522Z,1044.9
2023-05-01T11:13:02.012Z,1061.2
2023-05-01T11:14:45.427Z,1072.3
2023-05-01T11:16:28.709Z,1081.6
2023-05-01T11:18:12.172Z,1095.4
2023-05-01T11:19:55.527Z,1101.2
2023-05-01T11:21:38.901Z,1102.1
2023-05-01T11:23:22.309Z,1107.4
2023-05-01T11:25:06.097Z,1108.2
2023-05-01T11:26:49.496Z,1110
2023-05-01T11:28:32.806Z,1109.4
2023-05-01T11:30:16.191Z,1113.3
2023-05-01T11:31:59.596Z,1114.4
2023-05-01T11:33:43.005Z,1110.8
2023-05-01T11:35:26.448Z,1108.2
2023-05-01T11:37:09.783Z,1108
2023-05-01T11:40:36.258Z,1118.6
2023-05-01T11:42:19.647Z,1122.1
2023-05-01T11:44:03.095Z,1121.7
2023-05-01T11:45:46.514Z,1120.8
2023-05-01T11:47:41.737Z,1124.2
2023-05-01T11:49:13.283Z,1117.7
2023-05-01T11:50:56.635Z,1110.8
2023-05-01T11:52:40.091Z,1105.5
2023-05-01T11:56:06.530Z,1101.5
2023-05-01T11:57:49.902Z,1099.3
2023-05-01T11:59:33.318Z,1093.3
2023-05-01T12:01:16.717Z,1089.1
2023-05-01T12:03:00.092Z,1088.1
2023-05-01T12:04:43.548Z,1085
2023-05-01T12:06:26.917Z,1077.5
2023-05-01T12:08:10.303Z,1059.4
2023-05-01T12:09:54.018Z,1044.9
2023-05-01T12:11:37.406Z,1036
2023-05-01T12:13:20.864Z,1027.5
2023-05-01T12:15:04.280Z,1019
2023-05-01T12:16:47.590Z,1011
2023-05-01T12:18:30.967Z,1007
2023-05-01T12:20:14.361Z,1000.6
2023-05-01T12:21:57.757Z,998.2
2023-05-01T12:23:41.465Z,1000.5
2023-05-01T12:25:24.854Z,997.7
2023-05-01T12:27:08.349Z,995.5
2023-05-01T12:28:51.814Z,991.6
2023-05-01T12:30:35.146Z,992.3
2023-05-01T12:32:18.510Z,991.3
2023-05-01T12:34:01.850Z,989.1
2023-05-01T12:35:45.383Z,988.4
2023-05-01T12:39:11.866Z,988.4
2023-05-01T12:40:55.111Z,986
2023-05-01T12:42:38.500Z,984.3
2023-05-01T12:44:21.901Z,981.1
2023-05-01T12:46:05.353Z,976.1
2023-05-01T12:47:48.726Z,973
2023-05-01T12:49:32.118Z,969.4
2023-05-01T12:54:41.362Z,971.5
2023-05-01T12:56:24.726Z,971.2
2023-05-01T12:58:08.136Z,971.2
2023-05-01T12:59:51.690Z,972.2
2023-05-01T13:01:34.928Z,974.4
2023-05-01T13:03:18.323Z,978
2023-05-01T13:05:01.713Z,979.1
2023-05-01T13:10:11.047Z,988.9
2023-05-01T13:11:54.446Z,994.7
2023-05-01T13:13:37.778Z,1006
2023-05-01T13:15:21.135Z,1012.5
2023-05-01T13:17:04.560Z,1003.3
2023-05-01T13:18:47.950Z,988.7
2023-05-01T13:20:31.354Z,985.3
2023-05-01T13:25:40.726Z,994.7
2023-05-01T13:27:23.978Z,996.6
2023-05-01T13:29:07.422Z,1006.2
2023-05-01T13:30:50.837Z,1024.7
2023-05-01T13:32:34.187Z,1037.5
2023-05-01T13:34:17.549Z,1031.2
2023-05-01T13:36:00.954Z,1027.6
2023-05-01T13:37:44.332Z,1032.6
2023-05-01T13:39:28.021Z,1042.3
2023-05-01T13:41:11.521Z,1055.2
2023-05-01T13:42:54.862Z,1068.6
2023-05-01T13:44:38.224Z,1078.6
2023-05-01T13:46:21.646Z,1090.7
2023-05-01T13:48:05.015Z,1106.4
2023-05-01T13:49:48.410Z,1116.1
2023-05-01T13:54:57.776Z,1136.2
2023-05-01T13:56:41.060Z,1146.3
2023-05-01T13:58:24.580Z,1151.5
2023-05-01T14:00:07.859Z,1158.5
2023-05-01T14:01:51.271Z,1166.1
2023-05-01T14:03:34.637Z,1176.6
2023-05-01T14:05:18.139Z,1187.5
2023-05-01T14:08:44.529Z,1216.2
2023-05-01T14:10:27.901Z,1246.8
2023-05-01T14:12:11.315Z,1271.1
2023-05-01T14:13:54.701Z,1275.7
2023-05-01T14:15:38.199Z,1278.3
2023-05-01T14:17:21.573Z,1280.1
2023-05-01T14:19:04.882Z,1282.4
2023-05-01T14:20:48.272Z,1285.4
2023-05-01T14:24:14.838Z,1301.7
2023-05-01T14:25:58.145Z,1306.3
2023-05-01T14:27:41.535Z,1305.6
2023-05-01T14:29:25.034Z,1310.8
2023-05-01T14:31:08.332Z,1313.6
2023-05-01T14:32:51.752Z,1311.3
2023-05-01T14:34:35.133Z,1308.3
2023-05-01T14:38:01.721Z,1297.8
2023-05-01T14:39:45.082Z,1287.6
2023-05-01T14:41:28.471Z,1283.5
2023-05-01T14:43:11.819Z,1279.6
2023-05-01T14:44:55.209Z,1277.3
2023-05-01T14:46:38.648Z,1273.7
2023-05-01T14:48:22.002Z,1270.5
2023-05-01T14:50:05.380Z,1275.7
2023-05-01T14:51:49.078Z,1280.5
2023-05-01T14:53:32.491Z,1285.2
2023-05-01T14:55:16.093Z,1297.1
2023-05-01T14:56:59.313Z,1333.2
2023-05-01T14:58:42.681Z,1351.4
2023-05-01T15:00:26.065Z,1353.6
2023-05-01T15:02:09.458Z,1348.4
2023-05-01T15:03:52.912Z,1373.6
2023-05-01T15:05:36.616Z,1380.1
2023-05-01T15:07:19.967Z,1385.7
2023-05-01T15:09:03.367Z,1390.8
2023-05-01T15:10:46.773Z,1388.1
2023-05-01T15:12:30.178Z,1390.7
2023-05-01T15:14:13.544Z,1395
2023-05-01T15:15:56.952Z,1392
2023-05-01T15:17:40.330Z,1384.8
2023-05-01T15:19:24.059Z,1375.7
2023-05-01T15:21:07.439Z,1364.7
2023-05-01T15:22:50.845Z,1359.7
2023-05-01T15:24:34.291Z,1358.3
2023-05-01T15:26:17.739Z,1359
2023-05-01T15:28:01.029Z,1364.4
2023-05-01T15:29:44.410Z,1365.3
2023-05-01T15:31:27.825Z,1361.6
2023-05-01T15:33:11.530Z,1363.4
2023-05-01T15:34:55.046Z,1369.8
2023-05-01T15:36:38.380Z,1386
2023-05-01T15:38:21.841Z,1394.3
2023-05-01T15:40:05.117Z,1399.5
2023-05-01T15:41:48.502Z,1401.7
2023-05-01T15:43:31.911Z,1406.1
2023-05-01T15:45:15.290Z,1406.5
2023-05-01T15:46:59.028Z,1411.1
2023-05-01T15:48:42.416Z,1415.3
2023-05-01T15:50:25.817Z,1415.8
2023-05-01T15:52:09.218Z,1413.5
2023-05-01T15:53:52.605Z,1416.3
2023-05-01T15:55:35.987Z,1413.7
2023-05-01T15:57:19.405Z,1414.4
2023-05-01T16:00:45.940Z,1422.2
2023-05-01T16:02:29.236Z,1423.5
2023-05-01T16:04:12.643Z,1429.4
2023-05-01T16:05:56.045Z,1432.8
2023-05-01T16:07:39.435Z,1432.6
2023-05-01T16:09:22.843Z,1436.5
2023-05-01T16:11:06.373Z,1438.1
2023-05-01T16:14:32.710Z,1445.8
2023-05-01T16:16:16.083Z,1446.2
2023-05-01T16:17:59.506Z,1445.2
2023-05-01T16:19:42.924Z,1447.4
2023-05-01T16:21:26.375Z,1446.7
2023-05-01T16:23:09.776Z,1448.8
2023-05-01T16:24:53.095Z,1445.1
2023-05-01T16:30:02.318Z,1434.2
2023-05-01T16:31:45.705Z,1427.8
2023-05-01T16:33:29.176Z,1422.7
2023-05-01T16:35:12.492Z,1428
2023-05-01T16:36:55.942Z,1427.7
2023-05-01T16:38:39.279Z,1424.5
2023-05-01T16:40:22.852Z,1426.1
2023-05-01T16:43:49.163Z,1434.1
2023-05-01T16:45:32.556Z,1444.2
2023-05-01T16:47:16.040Z,1449.6
2023-05-01T16:48:59.342Z,1452.4
2023-05-01T16:50:42.739Z,1452.1
2023-05-01T16:52:26.130Z,1452.7
2023-05-01T16:54:09.525Z,1458.1
2023-05-01T16:59:18.799Z,1478.1
2023-05-01T17:01:02.206Z,1483.2
2023-05-01T17:02:45.627Z,1490.7
2023-05-01T17:04:28.991Z,1497.3
2023-05-01T17:06:12.402Z,1504
2023-05-01T17:07:55.822Z,1512.5
2023-05-01T17:09:39.305Z,1521.3
2023-05-01T17:11:22.550Z,1527.6
2023-05-01T17:14:49.663Z,1535.1
2023-05-01T17:16:33.059Z,1541.3
2023-05-01T17:18:16.446Z,1544
2023-05-01T17:19:59.857Z,1544.5
2023-05-01T17:21:43.244Z,1544.6
2023-05-01T17:23:26.790Z,1551.3
2023-05-01T17:25:10.056Z,1555.4
2023-05-01T17:28:36.647Z,1560.1
2023-05-01T17:30:19.929Z,1558.8
2023-05-01T17:32:03.352Z,1560.1
2023-05-01T17:33:46.690Z,1557.1
2023-05-01T17:35:30.137Z,1555.7
2023-05-01T17:37:13.463Z,1560.3
2023-05-01T17:38:56.992Z,1561
2023-05-01T17:40:40.395Z,1561
2023-05-01T17:42:24.054Z,1561.2
2023-05-01T17:44:07.363Z,1563.4
2023-05-01T17:45:50.791Z,1566.1
2023-05-01T17:47:34.207Z,1569.8
2023-05-01T17:49:17.608Z,1570.8
2023-05-01T17:51:01.086Z,1570.7
2023-05-01T17:52:44.366Z,1569.8
2023-05-01T17:57:53.729Z,1572.3
2023-05-01T17:59:36.992Z,1571.5
2023-05-01T18:01:20.378Z,1574.7
2023-05-01T18:03:03.792Z,1575.7
2023-05-01T18:04:47.336Z,1578.5
2023-05-01T18:06:30.675Z,1585
2023-05-01T18:08:14.049Z,1584.2
2023-05-01T18:11:40.640Z,1582
2023-05-01T18:13:23.834Z,1581.3
2023-05-01T18:15:07.347Z,1575.3
2023-05-01T18:16:50.719Z,1575.1
2023-05-01T18:18:34.044Z,1573.1
2023-05-01T18:20:17.513Z,1569.2
2023-05-01T18:22:00.809Z,1376.1
2023-05-01T18:27:10.090Z,947.4
2023-05-01T18:28:53.446Z,935.2
2023-05-01T18:30:36.946Z,939.8
2023-05-01T18:32:20.266Z,945.4
2023-05-01T18:34:03.638Z,955.5
2023-05-01T18:35:47.084Z,975
2023-05-01T18:37:30.510Z,1003.1
2023-05-01T18:40:56.902Z,989.9
2023-05-01T18:42:40.424Z,986.7
2023-05-01T18:44:23.697Z,987.4
2023-05-01T18:46:07.105Z,986.5
2023-05-01T18:47:50.492Z,987.5
2023-05-01T18:49:33.943Z,986.7
2023-05-01T18:51:17.490Z,988.7
2023-05-01T18:53:00.699Z,989.1
2023-05-01T18:54:44.405Z,989.2
2023-05-01T18:56:27.823Z,991.4
2023-05-01T18:58:11.179Z,997.1
2023-05-01T18:59:54.712Z,999.5
2023-05-01T19:01:38.025Z,997.1
2023-05-01T19:03:21.474Z,996.3
2023-05-01T19:05:04.773Z,998.1
2023-05-01T19:10:14.101Z,1003.6
2023-05-01T19:11:57.404Z,1004.4
2023-05-01T19:13:40.795Z,1006.4
2023-05-01T19:15:24.274Z,1007.6
2023-05-01T19:17:07.610Z,1008.6
2023-05-01T19:18:51.076Z,1011.8
2023-05-01T19:20:34.423Z,1010.2
2023-05-01T19:24:00.903Z,1009
2023-05-01T19:25:44.282Z,1018.2
2023-05-01T19:27:27.657Z,1026.8
2023-05-01T19:29:11.042Z,1029.7
2023-05-01T19:30:54.488Z,1031.7
2023-05-01T19:32:38.007Z,1036.4
2023-05-01T19:34:21.229Z,1041.1
2023-05-01T19:39:30.570Z,1053.1
2023-05-01T19:41:13.871Z,1059.6
2023-05-01T19:42:57.296Z,1062.3
2023-05-01T19:44:40.727Z,1064.7
2023-05-01T19:46:24.085Z,1068.1
2023-05-01T19:48:07.453Z,1068.6
2023-05-01T19:49:50.836Z,1070.3
2023-05-01T19:53:17.322Z,1078.1
2023-05-01T19:55:00.770Z,1086.4
2023-05-01T19:56:44.211Z,1089.7
2023-05-01T19:58:27.563Z,1095.3
2023-05-01T20:00:10.973Z,1101.8
2023-05-01T20:01:54.315Z,1109.8
2023-05-01T20:03:37.710Z,1111.4
2023-05-01T20:07:04.171Z,1122.6
2023-05-01T20:08:47.554Z,1120.5
2023-05-01T20:10:30.999Z,1119
2023-05-01T20:12:14.435Z,1123.2
2023-05-01T20:13:57.765Z,1124
2023-05-01T20:15:41.211Z,1125.4
2023-05-01T20:17:24.662Z,1129.3
2023-05-01T20:20:51.025Z,1133.6
2023-05-01T20:22:34.425Z,1135.5
2023-05-01T20:24:17.828Z,1139.1
2023-05-01T20:26:01.288Z,1143.4
2023-05-01T20:27:44.604Z,1147.1
2023-05-01T20:29:27.998Z,1152.2
2023-05-01T20:31:11.503Z,1158.4
2023-05-01T20:36:20.656Z,1170.9
2023-05-01T20:38:04.024Z,1169.6
2023-05-01T20:39:47.433Z,1171.3
2023-05-01T20:41:30.850Z,1168.7
2023-05-01T20:43:14.394Z,1168.2
2023-05-01T20:44:57.627Z,1172.4
2023-05-01T20:46:41.060Z,1176.3
2023-05-01T20:51:50.362Z,1187.5
2023-05-01T20:53:33.680Z,1189.4
2023-05-01T20:55:17.100Z,1189
2023-05-01T20:57:00.441Z,1191.8
2023-05-01T20:58:43.849Z,1195.3
2023-05-01T21:00:27.303Z,1198.2
2023-05-01T21:02:10.663Z,1204.7
2023-05-01T21:03:54.044Z,1208.7
2023-05-01T21:07:20.492Z,1217.2
2023-05-01T21:09:03.904Z,1217.1
2023-05-01T21:10:47.302Z,1212.1
2023-05-01T21:12:30.708Z,1213.8
2023-05-01T21:14:14.087Z,1214.7
2023-05-01T21:15:57.477Z,1213.7
2023-05-01T21:17:40.879Z,1214.6
2023-05-01T21:19:24.279Z,1216.1
2023-05-01T21:21:07.990Z,1221.1
2023-05-01T21:22:51.390Z,1225.8
2023-05-01T21:24:34.843Z,1229
2023-05-01T21:26:18.207Z,1232.1
2023-05-01T21:28:01.564Z,1231.7
2023-05-01T21:29:45.108Z,1233.4
2023-05-01T21:31:28.361Z,1236.1
2023-05-01T21:33:11.762Z,1238.5
2023-05-01T21:34:55.517Z,1241
2023-05-01T21:36:38.871Z,1242
2023-05-01T21:38:22.252Z,1243.4
2023-05-01T21:40:05.652Z,1246.1
2023-05-01T21:41:49.119Z,1250.6
2023-05-01T21:43:32.454Z,1254.4
2023-05-01T21:45:15.853Z,1261.5
2023-05-01T21:46:59.256Z,1271.4
2023-05-01T21:50:25.770Z,1271.9
2023-05-01T21:52:09.114Z,1270.5
2023-05-01T21:53:52.507Z,1268.2
2023-05-01T21:55:35.928Z,1270
2023-05-01T21:57:19.356Z,1273.4
2023-05-01T21:59:02.757Z,1274.4
2023-05-01T22:00:46.136Z,1275.1
2023-05-01T22:04:12.590Z,1272.7
2023-05-01T22:05:55.951Z,1272.5
2023-05-01T22:07:39.388Z,1273
2023-05-01T22:09:22.778Z,1275.4
2023-05-01T22:11:06.211Z,1272.2
2023-05-01T22:12:49.615Z,1269
2023-05-01T22:14:32.962Z,1266.6
2023-05-01T22:19:42.181Z,1258.8
2023-05-01T22:21:25.672Z,1257.4
2023-05-01T22:23:08.995Z,1250
2023-05-01T22:24:52.393Z,1246.2
2023-05-01T22:26:35.786Z,1242.3
2023-05-01T22:28:19.321Z,1238.6
2023-05-01T22:30:02.578Z,1239.5
2023-05-01T22:33:29.041Z,1238.6
2023-05-01T22:35:12.592Z,1236.2
2023-05-01T22:36:55.842Z,1234.5
2023-05-01T22:38:39.274Z,1233.8
2023-05-01T22:40:22.642Z,1228.1
2023-05-01T22:42:06.099Z,1227.8
2023-05-01T22:43:49.428Z,1231.2
2023-05-01T22:48:58.678Z,1192.4
2023-05-01T22:50:42.066Z,1124.2
2023-05-01T22:52:25.489Z,1103
2023-05-01T22:54:08.977Z,1094.1
2023-05-01T22:55:52.362Z,1091.2
2023-05-01T22:57:35.664Z,1087.7
2023-05-01T22:59:19.126Z,1085.5
2023-05-01T23:02:45.507Z,1086.5
2023-05-01T23:04:28.924Z,1082.1
2023-05-01T23:06:12.320Z,1079.5
2023-05-01T23:07:55.726Z,1076.5
2023-05-01T23:09:39.176Z,1070.3
2023-05-01T23:11:22.531Z,1065.4
2023-05-01T23:13:05.897Z,1060.7
2023-05-01T23:14:49.429Z,1054.5
2023-05-01T23:18:15.780Z,1042.9
2023-05-01T23:19:59.336Z,1039.6
2023-05-01T23:21:42.565Z,1037.3
2023-05-01T23:23:25.990Z,1033.3
2023-05-01T23:25:09.381Z,1030.3
2023-05-01T23:26:52.762Z,1026.2
2023-05-01T23:28:36.151Z,1017.5
2023-05-01T23:32:02.634Z,1007.8
2023-05-01T23:33:46.100Z,1002
2023-05-01T23:35:29.468Z,999.8
2023-05-01T23:37:12.846Z,998.4
2023-05-01T23:38:56.266Z,995.1
2023-05-01T23:40:39.615Z,992.4
2023-05-01T23:42:23.085Z,987.4
2023-05-01T23:47:32.283Z,974.6
2023-05-01T23:49:15.678Z,970.1
2023-05-01T23:50:59.128Z,966.7
2023-05-01T23:52:42.448Z,964
2023-05-01T23:54:25.861Z,959.7
2023-05-01T23:56:09.259Z,956
2023-05-01T23:57:52.645Z,951.3
